Time;durP1;ratioP1;P1;durP2;ratioP2;P2;SDS_P1;SDS_P2;PMS_P1;PMS_P2;Temp;Humidity;BMP_temperature;BMP_pressure;BME280_temperature;BME280_humidity;BME280_pressure;Samples;Min_cycle;Max_cycle;Signal;HPM_P1;HPM_P2
2022/05/03 00:04:43;;;;;;;2.10;1.90;;;;;;;;;;12448149;28;19909;-83
2022/05/03 00:10:51;;;;;;;2.00;1.80;;;;;;;;;;12448117;28;20033;-83
2022/05/03 00:16:54;;;;;;;1.98;1.88;;;;;;;;;;12449219;28;20530;-83
2022/05/03 00:22:56;;;;;;;3.15;2.13;;;;;;;;;;12448599;28;20034;-83
2022/05/03 00:28:58;;;;;;;2.50;1.85;;;;;;;;;;12430586;28;20056;-84
2022/05/03 00:35:00;;;;;;;2.20;2.03;;;;;;;;;;12447679;28;20033;-83
2022/05/03 00:41:04;;;;;;;2.20;2.00;;;;;;;;;;12446371;28;20048;-83
2022/05/03 00:47:10;;;;;;;2.22;2.03;;;;;;;;;;12446995;28;20038;-82
2022/05/03 00:53:15;;;;;;;1.98;1.88;;;;;;;;;;12429250;28;20041;-82
2022/05/03 00:59:33;;;;;;;1.95;1.77;;;;;;;;;;12446232;28;20046;-82
2022/05/03 01:05:35;;;;;;;2.10;2.00;;;;;;;;;;12445972;28;20053;-82
2022/05/03 01:11:37;;;;;;;1.73;1.60;;;;;;;;;;12445315;28;20034;-82
2022/05/03 01:17:45;;;;;;;2.00;1.90;;;;;;;;;;12446413;28;20062;-82
2022/05/03 01:24:06;;;;;;;2.20;1.98;;;;;;;;;;12446030;28;20049;-81
2022/05/03 01:30:11;;;;;;;2.33;2.10;;;;;;;;;;12446624;28;20034;-82
2022/05/03 01:36:15;;;;;;;2.15;1.80;;;;;;;;;;12445689;28;20038;-82
2022/05/03 01:42:17;;;;;;;2.30;2.10;;;;;;;;;;12445604;28;20487;-82
2022/05/03 01:50:18;;;;;;;1.23;1.13;;;;;;;;;;12458778;28;20045;-81
2022/05/03 01:54:56;;;;;;;2.40;2.20;;;;;;;;;;12460707;28;20038;-82
2022/05/03 02:01:03;;;;;;;1.70;1.60;;;;;;;;;;12459935;28;20037;-82
2022/05/03 02:07:25;;;;;;;2.15;1.92;;;;;;;;;;12461154;28;20602;-82
2022/05/03 02:20:07;;;;;;;2.00;1.90;;;;;;;;;;12461710;28;20069;-81
2022/05/03 02:26:15;;;;;;;2.88;1.80;;;;;;;;;;12459704;28;20034;-82
2022/05/03 02:32:22;;;;;;;2.20;2.00;;;;;;;;;;12460928;28;20041;-81
2022/05/03 02:38:50;;;;;;;2.42;1.90;;;;;;;;;;12459141;28;20046;-81
2022/05/03 02:44:56;;;;;;;2.00;1.70;;;;;;;;;;12439740;28;20042;-81
2022/05/03 02:51:02;;;;;;;2.13;2.03;;;;;;;;;;12460444;28;20034;-81
2022/05/03 02:57:04;;;;;;;2.65;2.10;;;;;;;;;;12456759;28;20041;-82
2022/05/03 03:03:12;;;;;;;2.33;2.00;;;;;;;;;;12452394;28;20033;-82
2022/05/03 03:09:20;;;;;;;2.20;2.00;;;;;;;;;;12450953;28;20466;-82
2022/05/03 03:15:29;;;;;;;2.00;1.85;;;;;;;;;;12451575;28;20049;-82
2022/05/03 03:21:36;;;;;;;2.38;2.00;;;;;;;;;;12452558;28;20054;-81
2022/05/03 03:27:38;;;;;;;2.40;2.20;;;;;;;;;;12450070;28;20034;-82
2022/05/03 03:33:41;;;;;;;2.15;2.05;;;;;;;;;;12449875;28;20042;-82
2022/05/03 03:39:43;;;;;;;2.47;2.28;;;;;;;;;;12449229;28;20037;-82
2022/05/03 03:45:45;;;;;;;2.30;2.10;;;;;;;;;;12450416;28;20042;-81
2022/05/03 03:51:48;;;;;;;2.20;2.10;;;;;;;;;;12450378;28;20479;-81
2022/05/03 03:57:50;;;;;;;2.50;2.30;;;;;;;;;;12449516;28;20052;-81
2022/05/03 04:03:52;;;;;;;2.53;2.33;;;;;;;;;;12448056;28;20491;-82
2022/05/03 04:09:54;;;;;;;1.95;1.85;;;;;;;;;;12448968;28;20053;-81
2022/05/03 04:15:56;;;;;;;3.30;3.00;;;;;;;;;;12448961;28;20050;-82
2022/05/03 04:22:12;;;;;;;5.03;2.80;;;;;;;;;;12450760;28;20041;-81
2022/05/03 04:28:14;;;;;;;2.80;2.60;;;;;;;;;;12450305;28;20042;-81
2022/05/03 04:34:15;;;;;;;2.90;2.70;;;;;;;;;;12448151;28;20046;-81
2022/05/03 04:40:17;;;;;;;4.33;2.57;;;;;;;;;;12447676;28;20052;-81
2022/05/03 04:46:20;;;;;;;2.67;2.47;;;;;;;;;;12451064;28;20034;-80
2022/05/03 04:52:22;;;;;;;2.58;2.38;;;;;;;;;;12447205;28;20037;-81
2022/05/03 04:58:24;;;;;;;2.57;2.37;;;;;;;;;;12446875;28;20038;-82
2022/05/03 05:04:26;;;;;;;2.10;2.00;;;;;;;;;;12445460;28;20052;-82
2022/05/03 05:10:28;;;;;;;2.10;1.90;;;;;;;;;;12446634;28;20513;-82
2022/05/03 05:16:30;;;;;;;2.08;1.88;;;;;;;;;;12447400;28;20058;-82
2022/05/03 05:22:32;;;;;;;2.37;2.17;;;;;;;;;;12445094;28;20033;-82
2022/05/03 05:28:34;;;;;;;2.40;2.20;;;;;;;;;;12447505;28;20030;-81
2022/05/03 05:34:36;;;;;;;2.23;2.03;;;;;;;;;;12452012;28;20040;-81
2022/05/03 05:40:37;;;;;;;3.95;2.40;;;;;;;;;;12471099;28;20042;-82
2022/05/03 05:46:39;;;;;;;1.67;1.57;;;;;;;;;;12483307;28;20374;-81
2022/05/03 05:59:01;;;;;;;4.95;4.50;;;;;;;;;;12479586;28;20346;-82
2022/05/03 06:05:03;;;;;;;18.33;16.63;;;;;;;;;;12463444;28;20021;-81
2022/05/03 06:11:05;;;;;;;5.72;5.15;;;;;;;;;;12479365;28;20026;-81
2022/05/03 06:17:07;;;;;;;22.77;20.87;;;;;;;;;;12481221;28;20056;-84
2022/05/03 06:23:09;;;;;;;15.57;14.20;;;;;;;;;;12477163;28;20528;-81
2022/05/03 06:29:11;;;;;;;11.17;10.07;;;;;;;;;;12461050;28;20021;-81
2022/05/03 06:35:13;;;;;;;8.13;7.53;;;;;;;;;;12461063;28;20474;-80
2022/05/03 06:41:16;;;;;;;22.23;20.20;;;;;;;;;;12488319;28;20040;-78
2022/05/03 06:47:18;;;;;;;10.02;9.13;;;;;;;;;;12472486;28;20429;-81
2022/05/03 06:53:20;;;;;;;;;;;;;;;;;;12480212;28;20410;-79
2022/05/03 06:59:22;;;;;;;12.40;10.83;;;;;;;;;;12489996;28;20396;-79
2022/05/03 07:05:24;;;;;;;7.28;6.55;;;;;;;;;;12476429;28;20033;-80
2022/05/03 07:11:26;;;;;;;9.03;7.23;;;;;;;;;;12473968;28;20041;-79
2022/05/03 07:23:48;;;;;;;7.47;6.13;;;;;;;;;;12469871;28;20044;-79
2022/05/03 07:29:49;;;;;;;6.33;4.63;;;;;;;;;;12479696;28;20036;-78
2022/05/03 07:35:51;;;;;;;3.97;3.20;;;;;;;;;;12493438;28;20068;-78
2022/05/03 07:41:54;;;;;;;3.33;3.03;;;;;;;;;;12480839;28;20400;-79
2022/05/03 07:47:56;;;;;;;2.80;2.60;;;;;;;;;;12491098;28;20044;-79
2022/05/03 07:53:58;;;;;;;7.45;6.75;;;;;;;;;;12474300;28;20272;-78
2022/05/03 08:00:00;;;;;;;4.57;4.27;;;;;;;;;;12454669;28;20064;-78
2022/05/03 08:06:02;;;;;;;19.27;17.42;;;;;;;;;;12490548;28;20291;-79
2022/05/03 08:12:04;;;;;;;;;;;;;;;;;;12458650;28;20033;-79
2022/05/03 08:18:06;;;;;;;5.07;4.68;;;;;;;;;;12476344;28;19925;-79
2022/05/03 08:24:08;;;;;;;;;;;;;;;;;;12473128;28;20556;-79
2022/05/03 08:30:10;;;;;;;4.78;4.38;;;;;;;;;;12481357;28;19964;-80
2022/05/03 08:36:12;;;;;;;4.10;3.67;;;;;;;;;;12491884;28;20036;-79
2022/05/03 08:42:15;;;;;;;4.00;3.50;;;;;;;;;;12478195;28;20026;-79
2022/05/03 08:48:18;;;;;;;3.53;2.78;;;;;;;;;;12485039;28;20280;-80
2022/05/03 08:54:20;;;;;;;4.72;2.25;;;;;;;;;;12478509;28;20386;-81
2022/05/03 09:00:23;;;;;;;2.33;2.13;;;;;;;;;;12448600;28;20036;-79
2022/05/03 09:06:41;;;;;;;2.70;2.05;;;;;;;;;;12471178;28;20375;-78
2022/05/03 09:12:44;;;;;;;4.32;3.85;;;;;;;;;;12487233;28;20034;-80
2022/05/03 09:18:46;;;;;;;5.35;4.70;;;;;;;;;;12479780;28;20068;-79
2022/05/03 09:24:52;;;;;;;4.40;4.00;;;;;;;;;;12470809;28;20041;-79
2022/05/03 09:30:53;;;;;;;3.90;3.55;;;;;;;;;;12472623;28;20029;-78
2022/05/03 09:36:58;;;;;;;4.30;3.95;;;;;;;;;;12485083;28;20045;-79
2022/05/03 09:43:00;;;;;;;7.38;6.63;;;;;;;;;;12481196;28;20022;-79
2022/05/03 09:49:01;;;;;;;4.30;3.90;;;;;;;;;;12465613;28;20448;-79
2022/05/03 09:55:08;;;;;;;3.80;3.25;;;;;;;;;;12461870;28;20029;-79
2022/05/03 10:01:09;;;;;;;2.10;1.90;;;;;;;;;;12455285;28;20049;-79
2022/05/03 10:07:11;;;;;;;2.90;1.65;;;;;;;;;;12466499;28;20029;-79
2022/05/03 10:13:13;;;;;;;2.72;1.67;;;;;;;;;;12479436;28;20030;-79
2022/05/03 10:25:47;;;;;;;1.98;1.60;;;;;;;;;;12479289;28;19913;-79
2022/05/03 10:31:56;;;;;;;1.23;1.13;;;;;;;;;;12467322;28;20025;-78
2022/05/03 10:37:59;;;;;;;1.27;1.17;;;;;;;;;;12493191;28;20045;-79
2022/05/03 10:44:20;;;;;;;1.92;1.10;;;;;;;;;;12473312;28;20033;-78
2022/05/03 10:50:32;;;;;;;1.63;1.42;;;;;;;;;;12470136;28;20048;-79
2022/05/03 10:56:34;;;;;;;1.30;0.85;;;;;;;;;;12487193;28;20050;-78
2022/05/03 11:02:56;;;;;;;1.67;1.25;;;;;;;;;;12469970;28;20041;-78
2022/05/03 11:09:09;;;;;;;5.60;5.22;;;;;;;;;;12496886;28;20076;-81
2022/05/03 11:15:11;;;;;;;10.43;9.60;;;;;;;;;;12502243;28;20032;-77
2022/05/03 11:21:13;;;;;;;6.80;6.15;;;;;;;;;;12471829;28;20053;-78
2022/05/03 11:27:16;;;;;;;10.20;9.40;;;;;;;;;;12498481;28;20029;-77
2022/05/03 11:33:20;;;;;;;3.95;3.65;;;;;;;;;;12481206;28;20052;-77
2022/05/03 11:39:25;;;;;;;7.80;7.25;;;;;;;;;;12481434;28;20045;-78
2022/05/03 11:45:27;;;;;;;3.50;3.20;;;;;;;;;;12499553;28;20022;-78
2022/05/03 11:57:52;;;;;;;1.75;1.65;;;;;;;;;;12498741;28;20041;-80
2022/05/03 12:03:58;;;;;;;3.38;1.58;;;;;;;;;;12498976;28;20038;-79
2022/05/03 12:09:59;;;;;;;2.50;1.30;;;;;;;;;;12498048;28;20037;-79
2022/05/03 12:16:01;;;;;;;3.30;2.03;;;;;;;;;;12498098;28;20044;-79
2022/05/03 12:22:03;;;;;;;;;;;;;;;;;;12431489;28;20045;-79
2022/05/03 12:28:05;;;;;;;;;;;;;;;;;;12447784;28;19909;-81
2022/05/03 12:34:07;;;;;;;2.33;1.63;;;;;;;;;;12447202;28;19913;-78
2022/05/03 12:40:09;;;;;;;1.23;1.13;;;;;;;;;;12447439;28;20038;-80
2022/05/03 12:46:11;;;;;;;2.85;2.65;;;;;;;;;;12448248;28;20029;-80
2022/05/03 12:52:12;;;;;;;;;;;;;;;;;;12447851;28;20038;-79
2022/05/03 12:58:24;;;;;;;2.00;1.80;;;;;;;;;;12446615;28;19928;-80
2022/05/03 13:04:30;;;;;;;1.70;1.45;;;;;;;;;;12446955;28;20041;-78
2022/05/03 13:10:33;;;;;;;6.00;5.35;;;;;;;;;;12428844;28;20040;-78
2022/05/03 13:16:35;;;;;;;2.17;1.98;;;;;;;;;;12450509;28;20041;-80
2022/05/03 13:22:37;;;;;;;1.85;1.75;;;;;;;;;;12477305;28;20041;-79
2022/05/03 13:28:39;;;;;;;1.92;1.33;;;;;;;;;;12494935;28;20040;-79
2022/05/03 13:34:40;;;;;;;3.80;3.50;;;;;;;;;;12477335;28;20033;-79
2022/05/03 13:40:42;;;;;;;1.63;1.52;;;;;;;;;;12494139;28;20076;-79
2022/05/03 13:46:44;;;;;;;3.20;1.77;;;;;;;;;;12476815;28;20402;-79
2022/05/03 13:52:46;;;;;;;2.88;2.65;;;;;;;;;;12494284;28;20418;-79
2022/05/03 13:58:47;;;;;;;4.57;4.28;;;;;;;;;;12476623;28;20211;-79
2022/05/03 14:04:49;;;;;;;2.88;2.67;;;;;;;;;;12476289;28;20030;-78
2022/05/03 14:10:51;;;;;;;9.27;8.57;;;;;;;;;;12476293;28;20064;-78
2022/05/03 14:16:52;;;;;;;2.90;2.70;;;;;;;;;;12476250;28;20054;-78
2022/05/03 14:22:55;;;;;;;2.20;2.10;;;;;;;;;;12493369;28;20037;-78
2022/05/03 14:28:57;;;;;;;3.58;3.28;;;;;;;;;;12459785;28;20048;-79
2022/05/03 14:34:59;;;;;;;5.32;4.50;;;;;;;;;;12475747;28;20041;-78
2022/05/03 14:41:01;;;;;;;5.13;3.00;;;;;;;;;;12459435;28;20402;-78
2022/05/03 14:47:03;;;;;;;2.45;2.25;;;;;;;;;;12492963;28;20041;-78
2022/05/03 14:53:05;;;;;;;1.70;1.58;;;;;;;;;;12461331;28;20034;-78
2022/05/03 15:05:27;;;;;;;1.45;0.93;;;;;;;;;;12501823;28;20041;-78
2022/05/03 15:11:29;;;;;;;1.13;0.80;;;;;;;;;;12501514;28;20060;-78
2022/05/03 15:17:31;;;;;;;0.63;0.63;;;;;;;;;;12483639;28;20049;-79
2022/05/03 15:29:52;;;;;;;1.63;0.60;;;;;;;;;;12500653;28;20394;-78
2022/05/03 15:35:54;;;;;;;0.57;0.57;;;;;;;;;;12482549;28;20048;-78
2022/05/03 15:41:56;;;;;;;0.90;0.50;;;;;;;;;;12482610;28;20479;-79
2022/05/03 15:47:58;;;;;;;0.70;0.50;;;;;;;;;;12483112;28;20475;-78
2022/05/03 15:54:00;;;;;;;1.15;0.40;;;;;;;;;;12482075;28;20041;-78
2022/05/03 16:00:02;;;;;;;0.73;0.50;;;;;;;;;;12482449;28;20410;-82
2022/05/03 16:06:28;;;;;;;0.50;0.50;;;;;;;;;;12485028;28;20318;-83
2022/05/03 16:12:32;;;;;;;0.52;0.50;;;;;;;;;;12500012;28;20378;-82
2022/05/03 16:18:35;;;;;;;0.90;0.68;;;;;;;;;;12465436;28;20053;-82
2022/05/03 16:24:38;;;;;;;0.50;0.40;;;;;;;;;;12498645;28;20044;-81
2022/05/03 16:30:40;;;;;;;0.40;0.40;;;;;;;;;;12480891;28;20040;-83
2022/05/03 16:43:03;;;;;;;0.90;0.63;;;;;;;;;;12497551;28;20044;-83
2022/05/03 16:49:05;;;;;;;0.57;0.50;;;;;;;;;;12499102;28;20040;-82
2022/05/03 16:55:07;;;;;;;0.90;0.63;;;;;;;;;;12479749;28;20049;-85
2022/05/03 17:01:09;;;;;;;0.65;0.65;;;;;;;;;;12496758;28;20398;-86
2022/05/03 17:07:12;;;;;;;0.65;0.60;;;;;;;;;;12496782;28;20033;-85
2022/05/03 17:13:15;;;;;;;1.33;0.60;;;;;;;;;;12479213;28;20052;-84
2022/05/03 17:19:17;;;;;;;0.70;0.70;;;;;;;;;;12477423;28;20600;-81
2022/05/03 17:25:19;;;;;;;1.10;1.00;;;;;;;;;;12479421;28;20048;-83
2022/05/03 17:31:23;;;;;;;0.80;0.80;;;;;;;;;;12478011;28;20447;-80
2022/05/03 17:37:24;;;;;;;0.88;0.70;;;;;;;;;;12494968;28;20494;-81
2022/05/03 17:43:27;;;;;;;2.40;0.90;;;;;;;;;;12495019;28;20025;-78
2022/05/03 17:49:32;;;;;;;0.85;0.85;;;;;;;;;;12477338;28;20378;-82
2022/05/03 17:55:34;;;;;;;0.80;0.80;;;;;;;;;;12494632;28;20052;-80
2022/05/03 18:01:36;;;;;;;;;;;;;;;;;;12497147;28;20052;-80
2022/05/03 18:07:37;;;;;;;1.90;0.90;;;;;;;;;;12494518;28;19913;-79
2022/05/03 18:13:40;;;;;;;1.58;0.90;;;;;;;;;;12494077;28;20032;-80
2022/05/03 18:19:43;;;;;;;1.88;0.93;;;;;;;;;;12475979;28;20057;-80
2022/05/03 18:25:45;;;;;;;1.65;1.05;;;;;;;;;;12493800;28;20044;-80
2022/05/03 18:31:47;;;;;;;0.75;0.75;;;;;;;;;;12504956;28;20048;-79
2022/05/03 18:37:48;;;;;;;0.80;0.80;;;;;;;;;;12485362;28;20033;-80
2022/05/03 18:43:51;;;;;;;;;;;;;;;;;;12503108;28;20494;-80
2022/05/03 18:49:53;;;;;;;1.23;0.90;;;;;;;;;;12503339;28;19909;-80
2022/05/03 18:55:54;;;;;;;1.10;1.10;;;;;;;;;;12484332;28;20471;-80
2022/05/03 19:01:56;;;;;;;1.73;1.15;;;;;;;;;;12483832;28;20050;-80
2022/05/03 19:07:59;;;;;;;0.95;0.85;;;;;;;;;;12467382;28;20052;-79
2022/05/03 19:14:01;;;;;;;;;;;;;;;;;;12483594;28;20026;-79
2022/05/03 19:20:04;;;;;;;2.15;1.00;;;;;;;;;;12500773;28;20731;-79
2022/05/03 19:32:26;;;;;;;0.82;0.80;;;;;;;;;;12500077;28;20033;-79
2022/05/03 19:38:27;;;;;;;2.28;1.13;;;;;;;;;;12498915;28;20053;-79
2022/05/03 19:44:32;;;;;;;1.00;1.00;;;;;;;;;;12482112;28;20044;-79
2022/05/03 19:50:35;;;;;;;1.20;1.10;;;;;;;;;;12499212;28;20030;-80
2022/05/03 19:56:39;;;;;;;;;;;;;;;;;;12499422;28;20041;-80
2022/05/03 20:02:42;;;;;;;1.20;1.10;;;;;;;;;;12481810;28;20397;-81
2022/05/03 20:08:44;;;;;;;1.73;1.30;;;;;;;;;;12481008;28;20037;-80
2022/05/03 20:14:46;;;;;;;1.80;1.30;;;;;;;;;;12498493;28;20041;-79
2022/05/03 20:20:48;;;;;;;1.27;1.13;;;;;;;;;;12480395;28;20045;-80
2022/05/03 20:26:50;;;;;;;1.30;1.20;;;;;;;;;;12498161;28;20410;-80
2022/05/03 20:32:52;;;;;;;1.75;1.65;;;;;;;;;;12498421;28;20280;-80
2022/05/03 20:38:54;;;;;;;1.85;1.50;;;;;;;;;;12497860;28;20041;-80
2022/05/03 20:44:56;;;;;;;2.00;1.20;;;;;;;;;;12497864;28;20045;-80
2022/05/03 20:50:57;;;;;;;1.57;1.40;;;;;;;;;;12462241;28;20645;-80
2022/05/03 20:56:59;;;;;;;1.65;1.52;;;;;;;;;;12479352;28;20816;-80
2022/05/03 21:03:03;;;;;;;1.50;1.40;;;;;;;;;;12496575;28;20037;-80
2022/05/03 21:09:05;;;;;;;1.63;1.52;;;;;;;;;;12496123;28;20021;-80
2022/05/03 21:15:07;;;;;;;1.75;1.58;;;;;;;;;;12478093;28;20038;-80
2022/05/03 21:21:09;;;;;;;3.67;1.48;;;;;;;;;;12495892;28;20125;-80
2022/05/03 21:27:11;;;;;;;2.80;1.60;;;;;;;;;;12478307;28;20497;-81
2022/05/03 21:33:13;;;;;;;2.57;1.67;;;;;;;;;;12495262;28;20030;-80
2022/05/03 21:39:16;;;;;;;2.03;1.67;;;;;;;;;;12461032;28;20494;-80
2022/05/03 21:45:17;;;;;;;2.17;1.75;;;;;;;;;;12494473;28;20036;-80
2022/05/03 21:51:19;;;;;;;2.27;1.27;;;;;;;;;;12477042;28;20034;-80
2022/05/03 21:57:21;;;;;;;1.60;1.50;;;;;;;;;;12460258;28;20372;-80
2022/05/03 22:03:24;;;;;;;2.83;2.47;;;;;;;;;;12480966;28;20040;-80
2022/05/03 22:09:26;;;;;;;2.30;2.10;;;;;;;;;;12470040;28;20490;-80
2022/05/03 22:15:29;;;;;;;2.08;1.98;;;;;;;;;;12503640;28;20033;-80
2022/05/03 22:21:31;;;;;;;2.28;2.08;;;;;;;;;;12453489;28;20065;-79
2022/05/03 22:27:33;;;;;;;3.20;2.10;;;;;;;;;;12453531;28;20037;-80
2022/05/03 22:33:35;;;;;;;2.10;1.90;;;;;;;;;;12454149;28;20053;-80
2022/05/03 22:39:36;;;;;;;2.80;2.28;;;;;;;;;;12452448;28;20046;-80
2022/05/03 22:45:41;;;;;;;3.10;2.30;;;;;;;;;;12453742;28;20034;-80
2022/05/03 22:51:43;;;;;;;2.28;2.08;;;;;;;;;;12435773;28;20030;-80
2022/05/03 22:57:45;;;;;;;2.53;2.33;;;;;;;;;;12452903;28;20038;-80
2022/05/03 23:03:46;;;;;;;2.63;2.13;;;;;;;;;;12453130;28;20583;-80
2022/05/03 23:09:48;;;;;;;2.93;2.20;;;;;;;;;;12434781;28;20034;-79
2022/05/03 23:15:51;;;;;;;2.80;2.33;;;;;;;;;;12450587;28;20034;-80
2022/05/03 23:21:53;;;;;;;2.60;2.40;;;;;;;;;;12497157;28;20053;-80
2022/05/03 23:27:54;;;;;;;3.30;2.43;;;;;;;;;;12500626;28;20113;-80
2022/05/03 23:35:06;;;;;;;2.60;2.40;;;;;;;;;;12500345;28;20036;-80
2022/05/03 23:40:18;;;;;;;2.58;2.38;;;;;;;;;;12483419;28;20053;-80
2022/05/03 23:46:19;;;;;;;2.80;2.30;;;;;;;;;;12483284;28;20387;-80
2022/05/03 23:52:21;;;;;;;2.87;2.57;;;;;;;;;;12465866;28;20042;-79
2022/05/03 23:58:23;;;;;;;2.53;2.33;;;;;;;;;;12499742;28;20626;-80
